createdAt,value
2022-10-30T00:02:04.599Z,52.86
2022-10-30T00:07:06.058Z,52.82
2022-10-30T00:12:07.471Z,52.92
2022-10-30T00:17:08.835Z,52.93
2022-10-30T00:22:10.234Z,53.19
2022-10-30T00:27:11.595Z,53.03
2022-10-30T00:32:12.998Z,52.95
2022-10-30T00:37:14.359Z,52.97
2022-10-30T00:42:16.119Z,53.02
2022-10-30T00:47:25.073Z,52.93
2022-10-30T00:52:28.176Z,52.95
2022-10-30T00:57:29.539Z,52.88
2022-10-30T01:02:31.025Z,52.97
2022-10-30T01:07:32.515Z,52.97
2022-10-30T01:12:33.872Z,53.08
2022-10-30T01:17:57.784Z,52.93
2022-10-30T01:23:06.015Z,53.03
2022-10-30T01:28:17.579Z,52.56
2022-10-30T01:33:34.011Z,52.62
2022-10-30T01:38:38.552Z,52.79
2022-10-30T01:43:39.912Z,52.65
2022-10-30T01:49:18.856Z,52.56
2022-10-30T01:55:07.956Z,52.93
2022-10-30T02:00:10.732Z,52.85
2022-10-30T02:05:13.767Z,52.58
2022-10-30T02:10:15.146Z,52.50
2022-10-30T02:15:16.510Z,52.70
2022-10-30T02:20:19.067Z,52.67
2022-10-30T02:25:20.433Z,52.67
2022-10-30T02:30:21.796Z,52.53
2022-10-30T02:35:23.164Z,52.69
2022-10-30T02:40:24.527Z,52.40
2022-10-30T02:45:25.923Z,52.63
2022-10-30T02:50:27.311Z,52.70
2022-10-30T02:55:28.684Z,52.76
2022-10-30T03:00:30.079Z,52.61
2022-10-30T03:05:31.450Z,52.54
2022-10-30T03:10:32.816Z,52.29
2022-10-30T03:15:34.177Z,52.32
2022-10-30T03:20:35.551Z,52.27
2022-10-30T03:25:36.920Z,52.52
2022-10-30T03:30:38.279Z,52.70
2022-10-30T03:35:39.647Z,52.39
2022-10-30T03:40:41.050Z,52.45
2022-10-30T03:45:50.472Z,52.33
2022-10-30T03:50:55.131Z,52.41
2022-10-30T03:56:00.532Z,52.34
2022-10-30T04:01:03.015Z,52.17
2022-10-30T04:06:04.505Z,52.31
2022-10-30T04:11:05.893Z,52.39
2022-10-30T04:16:07.428Z,52.29
2022-10-30T04:21:08.795Z,52.27
2022-10-30T04:26:10.159Z,52.33
2022-10-30T04:31:11.524Z,52.50
2022-10-30T04:36:12.899Z,52.10
2022-10-30T04:41:14.263Z,52.32
2022-10-30T04:46:17.032Z,52.31
2022-10-30T04:51:18.401Z,52.47
2022-10-30T04:56:19.951Z,52.25
2022-10-30T05:01:21.392Z,52.15
2022-10-30T05:06:26.292Z,51.94
2022-10-30T05:11:27.716Z,52.06
2022-10-30T05:16:29.083Z,52.06
2022-10-30T05:21:30.459Z,51.96
2022-10-30T05:26:31.831Z,52.10
2022-10-30T05:31:33.186Z,52.06
2022-10-30T05:36:34.554Z,52.19
2022-10-30T05:41:35.907Z,52.06
2022-10-30T05:46:37.275Z,52.06
2022-10-30T05:51:40.588Z,51.87
2022-10-30T05:56:42.298Z,52.08
2022-10-30T06:06:46.368Z,52.13
2022-10-30T06:11:47.727Z,52.03
2022-10-30T06:16:49.188Z,52.04
2022-10-30T06:21:50.576Z,52.27
2022-10-30T06:26:51.952Z,51.92
2022-10-30T06:31:53.315Z,52.35
2022-10-30T06:36:54.886Z,52.12
2022-10-30T06:41:56.525Z,52.06
2022-10-30T06:46:57.893Z,52.09
2022-10-30T06:51:59.258Z,52.25
2022-10-30T06:57:00.716Z,51.88
2022-10-30T07:02:03.371Z,52.15
2022-10-30T07:07:08.306Z,52.04
2022-10-30T07:12:09.732Z,52.48
2022-10-30T07:17:11.119Z,51.90
2022-10-30T07:22:12.483Z,52.22
2022-10-30T07:27:13.842Z,52.07
2022-10-30T07:32:15.202Z,52.07
2022-10-30T07:37:16.559Z,52.21
2022-10-30T07:42:17.935Z,52.08
2022-10-30T07:47:19.304Z,51.96
2022-10-30T07:52:20.659Z,52.05
2022-10-30T07:57:22.026Z,52.03
2022-10-30T08:02:23.547Z,52.17
2022-10-30T08:07:35.094Z,52.24
2022-10-30T08:12:37.331Z,52.37
2022-10-30T08:17:45.979Z,52.22
2022-10-30T08:22:51.442Z,52.48
2022-10-30T08:27:59.260Z,52.46
2022-10-30T08:33:02.132Z,52.75
2022-10-30T08:38:03.767Z,52.54
2022-10-30T08:43:05.139Z,52.50
2022-10-30T08:48:06.751Z,52.67
2022-10-30T08:53:10.281Z,52.65
2022-10-30T08:58:11.634Z,52.84
2022-10-30T09:03:12.998Z,52.83
2022-10-30T09:08:14.379Z,53.08
2022-10-30T09:13:15.739Z,53.03
2022-10-30T09:18:17.113Z,53.04
2022-10-30T09:23:18.480Z,53.08
2022-10-30T09:28:19.838Z,53.11
2022-10-30T09:33:21.195Z,53.14
2022-10-30T09:38:22.555Z,53.11
2022-10-30T09:43:35.527Z,53.03
2022-10-30T09:48:52.424Z,53.24
2022-10-30T09:54:05.256Z,53.46
2022-10-30T09:59:17.700Z,53.30
2022-10-30T10:04:37.672Z,53.58
2022-10-30T10:09:39.227Z,53.08
2022-10-30T10:14:44.735Z,53.67
2022-10-30T10:19:53.252Z,53.68
2022-10-30T10:24:54.648Z,53.64
2022-10-30T10:30:12.368Z,53.75
2022-10-30T10:35:21.082Z,53.79
2022-10-30T10:40:37.009Z,54.04
2022-10-30T10:45:41.165Z,53.62
2022-10-30T10:50:52.892Z,53.71
2022-10-30T10:55:55.588Z,53.80
2022-10-30T11:00:58.250Z,53.78
2022-10-30T11:06:19.248Z,53.80
2022-10-30T11:11:20.610Z,53.83
2022-10-30T11:16:31.418Z,53.84
2022-10-30T11:21:35.123Z,54.15
2022-10-30T11:26:36.490Z,54.11
2022-10-30T11:31:42.232Z,54.05
2022-10-30T11:36:50.583Z,54.25
2022-10-30T11:42:14.614Z,54.34
2022-10-30T11:47:16.504Z,54.08
2022-10-30T11:52:18.998Z,54.19
2022-10-30T11:57:36.036Z,54.38
2022-10-30T12:02:42.618Z,54.35
2022-10-30T12:07:44.001Z,54.67
2022-10-30T12:12:45.411Z,54.55
2022-10-30T12:17:53.690Z,54.56
2022-10-30T12:22:55.101Z,54.30
2022-10-30T12:28:07.832Z,54.42
2022-10-30T12:33:15.098Z,54.54
2022-10-30T12:38:27.620Z,54.58
2022-10-30T12:43:29.028Z,54.66
2022-10-30T12:48:33.897Z,54.69
2022-10-30T12:53:59.625Z,54.81
2022-10-30T12:59:11.746Z,54.92
2022-10-30T13:04:18.786Z,54.92
2022-10-30T13:09:44.159Z,55.19
2022-10-30T13:14:47.936Z,55.50
2022-10-30T13:19:50.909Z,54.98
2022-10-30T13:25:04.008Z,55.35
2022-10-30T13:30:07.134Z,55.04
2022-10-30T13:35:20.562Z,55.34
2022-10-30T13:40:27.753Z,55.41
2022-10-30T13:46:08.163Z,55.18
2022-10-30T13:51:27.774Z,55.25
2022-10-30T13:56:29.135Z,55.38
2022-10-30T14:01:37.680Z,55.18
2022-10-30T14:06:51.191Z,55.50
2022-10-30T14:11:55.583Z,55.46
2022-10-30T14:17:16.040Z,55.30
2022-10-30T14:22:23.708Z,55.73
2022-10-30T14:27:30.273Z,55.68
2022-10-30T14:32:35.298Z,55.72
2022-10-30T14:37:36.544Z,55.49
2022-10-30T14:43:07.070Z,55.75
2022-10-30T14:48:16.427Z,55.40
2022-10-30T14:53:32.822Z,55.56
2022-10-30T14:58:38.028Z,55.80
2022-10-30T15:03:49.671Z,55.75
2022-10-30T15:09:14.786Z,55.59
2022-10-30T15:14:52.690Z,55.80
2022-10-30T15:19:50.695Z,55.73
2022-10-30T15:24:52.055Z,55.68
2022-10-30T15:29:59.271Z,55.35
2022-10-30T15:35:03.111Z,55.34
2022-10-30T15:40:13.902Z,55.70
2022-10-30T15:45:20.019Z,55.76
2022-10-30T15:50:21.664Z,55.46
2022-10-30T15:55:27.786Z,55.81
2022-10-30T16:00:34.515Z,56.01
2022-10-30T16:05:35.998Z,55.68
2022-10-30T16:10:37.359Z,55.55
2022-10-30T16:15:38.990Z,55.43
2022-10-30T16:20:41.361Z,55.54
2022-10-30T16:25:46.948Z,55.57
2022-10-30T16:30:49.066Z,55.68
2022-10-30T16:35:54.800Z,55.60
2022-10-30T16:40:57.374Z,55.59
2022-10-30T16:46:13.619Z,55.32
2022-10-30T16:51:16.414Z,55.64
2022-10-30T16:56:23.482Z,55.38
2022-10-30T17:01:26.258Z,55.20
2022-10-30T17:06:47.963Z,55.12
2022-10-30T17:12:07.715Z,55.62
2022-10-30T17:17:22.532Z,55.56
2022-10-30T17:22:23.950Z,55.35
2022-10-30T17:27:46.540Z,55.42
2022-10-30T17:32:52.911Z,55.35
2022-10-30T17:37:57.209Z,55.51
2022-10-30T17:43:01.245Z,55.39
2022-10-30T17:48:03.001Z,55.43
2022-10-30T17:53:04.551Z,55.07
2022-10-30T17:58:05.920Z,55.10
2022-10-30T18:03:07.330Z,55.10
2022-10-30T18:08:08.691Z,55.12
2022-10-30T18:13:12.379Z,55.17
2022-10-30T18:18:13.760Z,55.23
2022-10-30T18:23:52.275Z,55.14
2022-10-30T18:28:43.475Z,55.01
2022-10-30T18:33:44.891Z,55.06
2022-10-30T18:38:46.270Z,54.98
2022-10-30T18:43:47.697Z,54.83
2022-10-30T18:48:49.079Z,54.96
2022-10-30T18:53:53.422Z,54.78
2022-10-30T18:58:58.746Z,54.78
2022-10-30T19:04:04.319Z,54.75
2022-10-30T19:09:06.098Z,54.77
2022-10-30T19:14:12.006Z,54.75
2022-10-30T19:19:14.788Z,54.77
2022-10-30T19:24:17.630Z,54.35
2022-10-30T19:29:18.990Z,54.78
2022-10-30T19:34:20.356Z,54.65
2022-10-30T19:39:21.718Z,54.60
2022-10-30T19:44:23.087Z,54.30
2022-10-30T19:49:24.583Z,54.59
2022-10-30T19:54:25.945Z,54.23
2022-10-30T19:59:27.307Z,54.30
2022-10-30T20:04:28.676Z,54.48
2022-10-30T20:09:30.861Z,54.11
2022-10-30T20:14:32.220Z,54.00
2022-10-30T20:19:33.588Z,54.18
2022-10-30T20:24:34.952Z,54.12
2022-10-30T20:29:36.775Z,53.94
2022-10-30T20:34:38.150Z,53.94
2022-10-30T20:39:39.507Z,54.03
2022-10-30T20:44:40.879Z,53.72
2022-10-30T20:49:42.457Z,53.81
2022-10-30T20:54:43.819Z,53.74
2022-10-30T20:59:45.183Z,53.65
2022-10-30T21:04:46.553Z,53.56
2022-10-30T21:09:47.927Z,53.64
2022-10-30T21:14:49.313Z,53.51
2022-10-30T21:19:50.724Z,53.25
2022-10-30T21:24:52.091Z,53.31
2022-10-30T21:29:53.446Z,53.28
2022-10-30T21:34:54.811Z,53.60
2022-10-30T21:39:56.167Z,53.29
2022-10-30T21:44:57.544Z,53.09
2022-10-30T21:49:58.907Z,53.12
2022-10-30T21:55:00.274Z,52.83
2022-10-30T22:00:05.603Z,53.23
2022-10-30T22:05:07.747Z,53.06
2022-10-30T22:10:09.119Z,52.88
2022-10-30T22:15:10.643Z,52.95
2022-10-30T22:20:12.026Z,52.90
2022-10-30T22:25:13.427Z,52.88
2022-10-30T22:30:14.796Z,52.66
2022-10-30T22:35:16.156Z,52.66
2022-10-30T22:40:17.518Z,52.71
2022-10-30T22:45:18.892Z,52.58
2022-10-30T22:50:20.247Z,52.52
2022-10-30T22:55:21.606Z,52.62
2022-10-30T23:00:27.308Z,52.41
2022-10-30T23:05:28.672Z,52.48
2022-10-30T23:10:30.034Z,52.25
2022-10-30T23:15:31.447Z,52.60
2022-10-30T23:20:32.820Z,52.17
2022-10-30T23:25:34.747Z,52.13
2022-10-30T23:30:36.611Z,52.07
2022-10-30T23:35:37.983Z,52.09
2022-10-30T23:40:39.343Z,52.34
2022-10-30T23:45:40.710Z,52.21
2022-10-30T23:50:42.080Z,51.72
2022-10-30T23:55:52.906Z,51.79
